Time;durP1;ratioP1;P1;durP2;ratioP2;P2;SDS_P1;SDS_P2;PMS_P1;PMS_P2;Temp;Humidity;BMP_temperature;BMP_pressure;BME280_temperature;BME280_humidity;BME280_pressure;Samples;Min_cycle;Max_cycle;Signal;HPM_P1;HPM_P2
2023/12/15 00:01:54;;;;;;;17.58;8.30;;;6.20;99.90;;;;;;5087359;28;20048;-68
2023/12/15 00:04:22;;;;;;;18.70;7.70;;;6.20;99.90;;;;;;5087331;28;20073;-69
2023/12/15 00:06:48;;;;;;;16.90;8.73;;;6.30;99.90;;;;;;5089305;28;20320;-68
2023/12/15 00:09:15;;;;;;;22.27;9.13;;;6.30;99.90;;;;;;5088817;28;20396;-68
2023/12/15 00:11:41;;;;;;;18.85;8.98;;;6.30;99.90;;;;;;5087242;28;20039;-69
2023/12/15 00:14:06;;;;;;;19.60;9.77;;;6.30;99.90;;;;;;5078586;28;20036;-68
2023/12/15 00:16:32;;;;;;;21.17;10.67;;;6.30;99.90;;;;;;5087731;28;20032;-68
2023/12/15 00:18:57;;;;;;;24.37;10.23;;;6.30;99.90;;;;;;5084333;28;20043;-69
2023/12/15 00:21:24;;;;;;;23.00;10.90;;;6.30;99.90;;;;;;5085446;28;20056;-68
2023/12/15 00:23:49;;;;;;;24.95;10.98;;;6.30;99.90;;;;;;5080328;28;20170;-69
2023/12/15 00:26:15;;;;;;;20.40;9.47;;;6.40;99.90;;;;;;5087374;28;20131;-69
2023/12/15 00:28:41;;;;;;;22.20;10.90;;;6.40;99.90;;;;;;5088488;28;20032;-68
2023/12/15 00:31:06;;;;;;;21.27;10.53;;;6.40;99.90;;;;;;5086766;28;20039;-69
2023/12/15 00:33:34;;;;;;;26.67;10.83;;;6.40;99.90;;;;;;5086558;28;20039;-68
2023/12/15 00:36:00;;;;;;;24.60;10.95;;;6.40;99.90;;;;;;5086729;28;20043;-69
2023/12/15 00:38:26;;;;;;;28.00;12.07;;;6.50;99.90;;;;;;5083107;28;20039;-68
2023/12/15 00:40:51;;;;;;;25.50;11.40;;;6.50;99.90;;;;;;5088414;28;20549;-68
2023/12/15 00:43:18;;;;;;;35.17;12.40;;;6.50;99.90;;;;;;5088143;28;20113;-68
2023/12/15 00:45:46;;;;;;;24.02;11.30;;;6.50;99.90;;;;;;5088324;28;20043;-69
2023/12/15 00:48:12;;;;;;;23.65;11.52;;;6.50;99.90;;;;;;5083494;28;20052;-69
2023/12/15 00:50:37;;;;;;;22.70;10.77;;;6.50;99.90;;;;;;5061252;28;20073;-69
2023/12/15 00:53:03;;;;;;;24.40;13.10;;;6.50;99.90;;;;;;5086678;28;20043;-69
2023/12/15 00:55:29;;;;;;;27.70;12.30;;;6.60;99.90;;;;;;5086625;28;20119;-68
2023/12/15 00:57:59;;;;;;;20.70;11.15;;;6.60;99.90;;;;;;5085648;28;20067;-68
2023/12/15 01:00:24;;;;;;;27.73;11.95;;;6.60;99.90;;;;;;5084127;28;20048;-68
2023/12/15 01:02:50;;;;;;;26.00;11.83;;;6.60;99.90;;;;;;5085014;28;20427;-68
2023/12/15 01:05:16;;;;;;;26.87;11.83;;;6.60;99.90;;;;;;5087572;28;20040;-68
2023/12/15 01:07:41;;;;;;;26.57;12.70;;;6.70;99.90;;;;;;5086158;28;20392;-69
2023/12/15 01:10:07;;;;;;;26.47;12.93;;;6.60;99.90;;;;;;5087873;28;20107;-69
2023/12/15 01:12:33;;;;;;;23.92;12.20;;;6.60;99.90;;;;;;5090552;28;20120;-69
2023/12/15 01:14:58;;;;;;;26.27;12.57;;;6.60;99.90;;;;;;5090579;28;20036;-69
2023/12/15 01:17:24;;;;;;;25.17;12.10;;;6.70;99.90;;;;;;5090830;28;20519;-69
2023/12/15 01:19:49;;;;;;;27.27;13.73;;;6.70;99.90;;;;;;5084536;28;20040;-69
2023/12/15 01:22:15;;;;;;;26.73;12.23;;;6.70;99.90;;;;;;5086173;28;20044;-69
2023/12/15 01:24:41;;;;;;;22.83;11.33;;;6.60;99.90;;;;;;5090206;28;20044;-68
2023/12/15 01:27:10;;;;;;;22.25;11.48;;;6.70;99.90;;;;;;5086345;28;20424;-69
2023/12/15 01:29:35;;;;;;;26.40;12.55;;;6.70;99.90;;;;;;5090171;28;20048;-69
2023/12/15 01:32:04;;;;;;;23.17;11.83;;;6.70;99.90;;;;;;5091333;28;20036;-69
2023/12/15 01:34:30;;;;;;;21.08;11.70;;;6.70;99.90;;;;;;5086470;28;20038;-68
2023/12/15 01:36:55;;;;;;;26.27;11.97;;;6.60;99.90;;;;;;5087431;28;20036;-68
2023/12/15 01:39:21;;;;;;;24.67;11.43;;;6.70;99.90;;;;;;5091230;28;20048;-69
2023/12/15 01:41:46;;;;;;;28.03;12.20;;;6.70;99.90;;;;;;5091448;28;20042;-68
2023/12/15 01:44:12;;;;;;;21.37;10.63;;;6.70;99.90;;;;;;5088327;28;20109;-69
2023/12/15 01:46:38;;;;;;;18.87;10.80;;;6.70;99.90;;;;;;5090585;28;20692;-69
2023/12/15 01:49:03;;;;;;;22.33;11.90;;;6.70;99.90;;;;;;5085713;28;20040;-69
2023/12/15 01:51:29;;;;;;;27.47;12.20;;;6.60;99.90;;;;;;5072890;28;20056;-74
2023/12/15 01:53:54;;;;;;;23.63;10.77;;;6.60;99.90;;;;;;5086569;28;20400;-69
2023/12/15 01:56:20;;;;;;;24.73;11.80;;;6.60;99.90;;;;;;5086235;28;20044;-68
2023/12/15 01:58:46;;;;;;;25.67;11.23;;;6.50;99.90;;;;;;5091357;28;20495;-68
2023/12/15 02:01:11;;;;;;;23.87;11.27;;;6.50;99.90;;;;;;5089772;28;20496;-68
2023/12/15 02:03:37;;;;;;;27.23;11.70;;;6.50;99.90;;;;;;5090121;28;20545;-68
2023/12/15 02:06:03;;;;;;;25.03;11.80;;;6.50;99.90;;;;;;5090077;28;20040;-69
2023/12/15 02:08:29;;;;;;;26.63;11.85;;;6.50;99.90;;;;;;5074869;28;20064;-69
2023/12/15 02:10:54;;;;;;;20.47;11.27;;;6.50;99.90;;;;;;5081162;28;20040;-68
2023/12/15 02:13:20;;;;;;;22.93;11.77;;;6.50;99.90;;;;;;5089526;28;20040;-68
2023/12/15 02:15:48;;;;;;;27.27;12.20;;;6.50;99.90;;;;;;5091384;28;20036;-68
2023/12/15 02:18:13;;;;;;;19.77;11.10;;;6.50;99.90;;;;;;5084565;28;20056;-69
2023/12/15 02:20:39;;;;;;;27.83;11.27;;;6.50;99.90;;;;;;5088941;28;20048;-69
2023/12/15 02:23:05;;;;;;;21.40;10.87;;;6.50;99.90;;;;;;5068855;28;20131;-68
2023/12/15 02:25:30;;;;;;;24.87;10.47;;;6.50;99.90;;;;;;5084339;28;20454;-69
2023/12/15 02:27:56;;;;;;;23.67;12.00;;;6.50;99.90;;;;;;5089299;28;20032;-69
2023/12/15 02:30:22;;;;;;;21.70;10.70;;;6.50;99.90;;;;;;5090065;28;20082;-69
2023/12/15 02:32:47;;;;;;;18.73;10.07;;;6.50;99.90;;;;;;5090050;28;20078;-68
2023/12/15 02:35:14;;;;;;;24.27;11.43;;;6.50;99.90;;;;;;5089046;28;20501;-69
2023/12/15 02:37:45;;;;;;;20.63;10.15;;;6.50;99.90;;;;;;5089754;28;20442;-68
2023/12/15 02:40:11;;;;;;;19.20;10.23;;;6.50;99.90;;;;;;5089542;28;20127;-69
2023/12/15 02:42:37;;;;;;;24.60;11.15;;;6.40;99.90;;;;;;5091848;28;20063;-69
2023/12/15 02:45:03;;;;;;;19.90;10.13;;;6.40;99.90;;;;;;5089990;28;20051;-69
2023/12/15 02:47:28;;;;;;;23.13;10.18;;;6.30;99.90;;;;;;5090509;28;20047;-68
2023/12/15 02:49:54;;;;;;;21.03;9.40;;;6.30;99.90;;;;;;5091714;28;20119;-69
2023/12/15 02:52:22;;;;;;;23.07;11.23;;;6.30;99.90;;;;;;5091486;28;20036;-69
2023/12/15 02:54:48;;;;;;;23.88;10.07;;;6.30;99.90;;;;;;5081991;28;20120;-69
2023/12/15 02:57:14;;;;;;;23.77;11.00;;;6.30;99.90;;;;;;5089557;28;20146;-68
2023/12/15 02:59:39;;;;;;;18.40;10.17;;;6.20;99.90;;;;;;5085075;28;20063;-67
2023/12/15 03:02:05;;;;;;;19.70;9.47;;;6.20;99.90;;;;;;5089878;28;20527;-67
2023/12/15 03:04:30;;;;;;;22.23;9.07;;;6.20;99.90;;;;;;5088371;28;20089;-68
2023/12/15 03:06:56;;;;;;;19.90;8.83;;;6.20;99.90;;;;;;5067923;28;20028;-68
2023/12/15 03:09:22;;;;;;;27.40;9.57;;;6.20;99.90;;;;;;5091425;28;20431;-67
2023/12/15 03:11:47;;;;;;;19.57;8.13;;;6.20;99.90;;;;;;5091591;28;20058;-68
2023/12/15 03:14:13;;;;;;;21.00;8.80;;;6.10;99.90;;;;;;5091373;28;20299;-68
2023/12/15 03:16:41;;;;;;;18.63;9.30;;;6.10;99.90;;;;;;5091611;28;20032;-67
2023/12/15 03:19:09;;;;;;;19.10;8.85;;;6.10;99.90;;;;;;5091091;28;20078;-67
2023/12/15 03:21:35;;;;;;;17.42;8.85;;;6.10;99.90;;;;;;5090777;28;20036;-68
2023/12/15 03:24:00;;;;;;;16.00;9.77;;;6.10;99.90;;;;;;5089637;28;20100;-68
2023/12/15 03:26:26;;;;;;;20.70;8.40;;;6.10;99.90;;;;;;5089053;28;20035;-67
2023/12/15 03:28:52;;;;;;;25.33;9.40;;;6.10;99.90;;;;;;5089280;28;20040;-67
2023/12/15 03:31:18;;;;;;;17.25;8.70;;;6.00;99.90;;;;;;5089075;28;20496;-67
2023/12/15 03:33:43;;;;;;;20.33;8.83;;;6.10;99.90;;;;;;5089290;28;20092;-67
2023/12/15 03:36:09;;;;;;;17.47;9.00;;;6.10;99.90;;;;;;5089677;28;20040;-67
2023/12/15 03:38:35;;;;;;;19.07;9.00;;;6.10;99.90;;;;;;5091357;28;20484;-67
2023/12/15 03:41:00;;;;;;;15.03;8.50;;;6.00;99.90;;;;;;5090909;28;20039;-67
2023/12/15 03:43:26;;;;;;;19.80;8.63;;;6.00;99.90;;;;;;5072399;28;20044;-67
2023/12/15 03:45:52;;;;;;;20.30;7.90;;;6.00;99.90;;;;;;5086906;28;20396;-68
2023/12/15 03:48:17;;;;;;;16.87;8.03;;;6.00;99.90;;;;;;5092637;28;20032;-67
2023/12/15 03:50:43;;;;;;;19.83;9.43;;;6.00;99.90;;;;;;5090109;28;20043;-72
2023/12/15 03:53:08;;;;;;;20.83;8.10;;;6.00;99.90;;;;;;5088996;28;20046;-71
2023/12/15 03:55:34;;;;;;;22.37;9.13;;;6.00;99.90;;;;;;5088559;28;20258;-70
2023/12/15 03:58:00;;;;;;;17.27;8.13;;;6.00;99.90;;;;;;5082780;28;20440;-68
2023/12/15 04:00:27;;;;;;;18.83;8.27;;;6.00;99.90;;;;;;5087779;28;20538;-68
2023/12/15 04:02:52;;;;;;;25.33;8.18;;;6.00;99.90;;;;;;5069167;28;20649;-68
2023/12/15 04:05:20;;;;;;;21.20;8.90;;;6.00;99.90;;;;;;5088187;28;20048;-68
2023/12/15 04:07:48;;;;;;;19.98;8.10;;;6.00;99.90;;;;;;5096766;28;20131;-68
2023/12/15 04:10:14;;;;;;;15.40;7.82;;;6.00;99.90;;;;;;5086846;28;20089;-68
2023/12/15 04:12:40;;;;;;;16.55;8.48;;;6.00;99.90;;;;;;5090118;28;20290;-68
2023/12/15 04:15:08;;;;;;;19.23;8.03;;;6.10;99.90;;;;;;5088607;28;20044;-69
2023/12/15 04:17:34;;;;;;;20.23;7.50;;;6.00;99.90;;;;;;5068575;28;20050;-68
2023/12/15 04:20:00;;;;;;;19.83;8.23;;;6.00;99.90;;;;;;5071764;28;20035;-68
2023/12/15 04:22:25;;;;;;;24.83;8.30;;;6.00;99.90;;;;;;5089347;28;20421;-68
2023/12/15 04:24:51;;;;;;;20.07;8.10;;;6.00;99.90;;;;;;5089273;28;20122;-68
2023/12/15 04:27:16;;;;;;;18.00;8.00;;;6.00;99.90;;;;;;5088410;28;20131;-68
2023/12/15 04:29:42;;;;;;;17.33;7.73;;;6.00;99.90;;;;;;5084995;28;20044;-68
2023/12/15 04:32:08;;;;;;;22.40;7.80;;;6.00;99.90;;;;;;5068131;28;20119;-68
2023/12/15 04:34:34;;;;;;;20.40;7.95;;;6.00;99.90;;;;;;5088397;28;20503;-68
2023/12/15 04:37:00;;;;;;;21.42;8.52;;;6.00;99.90;;;;;;5089510;28;20036;-70
2023/12/15 04:39:25;;;;;;;17.47;8.23;;;6.00;99.90;;;;;;5087998;28;20047;-68
2023/12/15 04:41:51;;;;;;;18.20;7.77;;;5.90;99.90;;;;;;5075100;28;20044;-68
2023/12/15 04:44:17;;;;;;;23.90;8.50;;;5.90;99.90;;;;;;5077106;28;20044;-67
2023/12/15 04:46:42;;;;;;;25.07;8.30;;;5.90;99.90;;;;;;5090788;28;20076;-67
2023/12/15 04:49:08;;;;;;;14.37;7.10;;;5.90;99.90;;;;;;5083884;28;20485;-68
2023/12/15 04:51:34;;;;;;;19.03;7.53;;;5.90;99.90;;;;;;5084233;28;20036;-67
2023/12/15 04:53:59;;;;;;;23.53;7.73;;;5.90;99.90;;;;;;5076861;28;20085;-68
2023/12/15 04:56:25;;;;;;;27.47;7.37;;;5.90;99.90;;;;;;5087003;28;20831;-68
2023/12/15 04:58:51;;;;;;;22.73;7.07;;;5.80;99.90;;;;;;5084741;28;20496;-68
2023/12/15 05:01:19;;;;;;;20.17;6.95;;;5.80;99.90;;;;;;5068984;28;20117;-68
2023/12/15 05:03:45;;;;;;;20.42;7.38;;;5.80;99.90;;;;;;5069179;28;20060;-68
2023/12/15 05:06:21;;;;;;;15.95;6.60;;;5.70;99.90;;;;;;5089610;28;20051;-68
2023/12/15 05:08:48;;;;;;;14.77;5.70;;;5.80;99.90;;;;;;5076051;28;20057;-68
2023/12/15 05:11:15;;;;;;;25.25;7.68;;;5.70;99.90;;;;;;5081678;28;20553;-68
2023/12/15 05:13:41;;;;;;;23.25;6.32;;;5.70;99.90;;;;;;5081544;28;20093;-67
2023/12/15 05:16:07;;;;;;;19.15;6.93;;;5.70;99.90;;;;;;5089385;28;20039;-68
2023/12/15 05:18:32;;;;;;;19.55;7.13;;;5.70;99.90;;;;;;5093861;28;20044;-68
2023/12/15 05:20:58;;;;;;;19.53;6.80;;;5.70;99.90;;;;;;5087750;28;20514;-68
2023/12/15 05:23:24;;;;;;;19.23;6.50;;;5.70;99.90;;;;;;5091113;28;20043;-68
2023/12/15 05:25:50;;;;;;;20.33;6.20;;;5.70;99.90;;;;;;5087593;28;20539;-67
2023/12/15 05:28:15;;;;;;;20.00;6.35;;;5.70;99.90;;;;;;5083428;28;20060;-67
2023/12/15 05:30:44;;;;;;;20.23;6.87;;;5.70;99.90;;;;;;5087993;28;20047;-69
2023/12/15 05:33:10;;;;;;;20.52;6.70;;;5.70;99.90;;;;;;5089164;28;20043;-68
2023/12/15 05:35:35;;;;;;;15.67;6.50;;;5.70;99.90;;;;;;5087338;28;20407;-68
2023/12/15 05:38:02;;;;;;;14.33;6.07;;;5.60;99.90;;;;;;5089081;28;20493;-68
2023/12/15 05:40:28;;;;;;;13.75;5.10;;;5.60;99.90;;;;;;5087414;28;20043;-68
2023/12/15 05:42:54;;;;;;;25.05;6.35;;;5.60;99.90;;;;;;5087697;28;20058;-67
2023/12/15 05:45:19;;;;;;;18.03;6.83;;;5.60;99.90;;;;;;5087717;28;20048;-68
2023/12/15 05:47:46;;;;;;;14.17;6.03;;;5.60;99.90;;;;;;5085540;28;20039;-68
2023/12/15 05:50:12;;;;;;;16.15;6.47;;;5.60;99.90;;;;;;5090836;28;20102;-68
2023/12/15 05:52:38;;;;;;;15.53;5.90;;;5.60;99.90;;;;;;5083298;28;20113;-67
2023/12/15 05:55:04;;;;;;;19.00;6.43;;;5.60;99.90;;;;;;5088043;28;20281;-68
2023/12/15 05:57:29;;;;;;;18.77;5.80;;;5.60;99.90;;;;;;5100954;28;20035;-67
2023/12/15 05:59:55;;;;;;;17.27;5.73;;;5.60;99.90;;;;;;5091169;28;20043;-68
2023/12/15 06:02:20;;;;;;;15.50;5.87;;;5.60;99.90;;;;;;5088583;28;20056;-67
2023/12/15 06:04:46;;;;;;;16.57;5.50;;;5.60;99.90;;;;;;5077087;28;20064;-67
2023/12/15 06:07:11;;;;;;;17.27;5.27;;;5.50;99.90;;;;;;5091133;28;20040;-67
2023/12/15 06:09:37;;;;;;;15.17;5.37;;;5.50;99.90;;;;;;5090146;28;20427;-68
2023/12/15 06:12:09;;;;;;;12.70;5.00;;;5.50;99.90;;;;;;5083949;28;20089;-68
2023/12/15 06:14:38;;;;;;;14.75;5.38;;;5.60;99.90;;;;;;5091945;28;20093;-68
2023/12/15 06:17:07;;;;;;;16.63;5.65;;;5.60;99.90;;;;;;5090937;28;20138;-68
2023/12/15 06:19:37;;;;;;;19.00;5.28;;;5.60;99.90;;;;;;5073617;28;20040;-68
2023/12/15 06:22:06;;;;;;;15.35;5.25;;;5.50;99.90;;;;;;5107732;28;20048;-68
2023/12/15 06:24:31;;;;;;;15.10;5.70;;;5.50;99.90;;;;;;5083115;28;20123;-68
2023/12/15 06:26:57;;;;;;;18.20;5.27;;;5.50;99.90;;;;;;5085998;28;20231;-68
2023/12/15 06:29:22;;;;;;;19.00;5.27;;;5.50;99.90;;;;;;5091649;28;20033;-68
2023/12/15 06:31:48;;;;;;;10.23;4.37;;;5.50;99.90;;;;;;5091363;28;20032;-68
2023/12/15 06:34:14;;;;;;;12.52;4.07;;;5.60;99.90;;;;;;5090617;28;20044;-68
2023/12/15 06:36:40;;;;;;;16.40;4.73;;;5.50;99.90;;;;;;5091917;28;20070;-68
2023/12/15 06:39:06;;;;;;;12.07;4.28;;;5.50;99.90;;;;;;5090932;28;20488;-68
2023/12/15 06:41:32;;;;;;;19.42;5.35;;;5.60;99.90;;;;;;5090336;28;20123;-74
2023/12/15 06:44:05;;;;;;;23.73;4.80;;;5.50;99.90;;;;;;5082250;28;20246;-73
2023/12/15 06:46:31;;;;;;;17.35;4.50;;;5.50;99.90;;;;;;5081486;28;20127;-72
2023/12/15 06:48:56;;;;;;;21.80;5.80;;;5.60;99.90;;;;;;5087097;28;20173;-72
2023/12/15 06:51:22;;;;;;;14.40;5.20;;;5.50;99.90;;;;;;5091997;28;20158;-71
2023/12/15 06:53:50;;;;;;;14.70;4.77;;;5.50;99.90;;;;;;5085492;28;20039;-71
2023/12/15 06:56:16;;;;;;;20.33;4.38;;;5.40;99.90;;;;;;5096369;28;20039;-72
2023/12/15 06:58:41;;;;;;;24.07;5.10;;;5.50;99.90;;;;;;5090182;28;20443;-75
2023/12/15 07:01:07;;;;;;;13.70;5.13;;;5.50;99.90;;;;;;5085130;28;20044;-72
2023/12/15 07:03:33;;;;;;;18.40;4.73;;;5.40;99.90;;;;;;5090005;28;20119;-68
2023/12/15 07:05:58;;;;;;;14.70;4.50;;;5.40;99.90;;;;;;5087308;28;20037;-68
2023/12/15 07:08:24;;;;;;;17.27;4.53;;;5.40;99.90;;;;;;5089710;28;20519;-68
2023/12/15 07:10:50;;;;;;;21.00;4.97;;;5.40;99.90;;;;;;5089932;28;20119;-67
2023/12/15 07:13:15;;;;;;;21.15;4.63;;;5.40;99.90;;;;;;5085215;28;20044;-68
2023/12/15 07:15:41;;;;;;;16.97;4.57;;;5.40;99.90;;;;;;5095603;28;20035;-68
2023/12/15 07:18:09;;;;;;;18.50;4.57;;;5.40;99.90;;;;;;5088183;28;20043;-68
2023/12/15 07:20:35;;;;;;;14.93;4.55;;;5.40;99.90;;;;;;5091170;28;20040;-68
2023/12/15 07:23:01;;;;;;;19.07;5.13;;;5.40;99.90;;;;;;5087595;28;20104;-68
2023/12/15 07:25:27;;;;;;;15.00;4.70;;;5.40;99.90;;;;;;5086558;28;20036;-68
2023/12/15 07:27:55;;;;;;;9.53;3.77;;;5.40;99.90;;;;;;5087596;28;20039;-68
2023/12/15 07:30:21;;;;;;;19.58;4.18;;;5.40;99.90;;;;;;5089174;28;20150;-67
2023/12/15 07:32:48;;;;;;;16.55;4.00;;;5.40;99.90;;;;;;5079127;28;20078;-67
2023/12/15 07:35:16;;;;;;;17.33;4.32;;;5.40;99.90;;;;;;5086231;28;20047;-69
2023/12/15 07:37:42;;;;;;;21.90;4.23;;;5.40;99.90;;;;;;5071010;28;20043;-68
2023/12/15 07:40:08;;;;;;;19.98;4.13;;;5.40;99.90;;;;;;5083512;28;20068;-68
2023/12/15 07:42:36;;;;;;;15.60;3.38;;;5.40;99.90;;;;;;5085813;28;20044;-68
2023/12/15 07:45:02;;;;;;;14.15;3.80;;;5.40;99.90;;;;;;5090086;28;20035;-68
2023/12/15 07:47:28;;;;;;;16.92;5.38;;;5.40;99.90;;;;;;5078302;28;20083;-68
2023/12/15 07:49:54;;;;;;;14.70;3.45;;;5.40;99.90;;;;;;5083852;28;20089;-68
2023/12/15 07:52:20;;;;;;;14.77;3.87;;;5.40;99.90;;;;;;5086361;28;20039;-68
2023/12/15 07:54:45;;;;;;;19.33;3.50;;;5.40;99.90;;;;;;5089601;28;20036;-68
2023/12/15 07:57:12;;;;;;;17.67;4.57;;;5.40;99.90;;;;;;5086192;28;20039;-69
2023/12/15 07:59:38;;;;;;;16.25;3.47;;;5.40;99.90;;;;;;5072442;28;20052;-69
2023/12/15 08:02:04;;;;;;;10.87;3.73;;;5.40;99.90;;;;;;5076991;28;20048;-70
2023/12/15 08:04:29;;;;;;;18.67;4.77;;;5.50;99.90;;;;;;5071937;28;20052;-70
2023/12/15 08:06:55;;;;;;;19.30;4.00;;;5.50;99.90;;;;;;5074542;28;20047;-69
2023/12/15 08:09:20;;;;;;;13.97;4.13;;;5.50;99.90;;;;;;5080981;28;20043;-69
2023/12/15 08:11:46;;;;;;;18.33;3.57;;;5.50;99.90;;;;;;5072225;28;20431;-70
2023/12/15 08:14:12;;;;;;;14.10;3.70;;;5.60;99.90;;;;;;5070390;28;20036;-69
2023/12/15 08:16:37;;;;;;;13.33;3.57;;;5.60;99.90;;;;;;5072197;28;20496;-70
2023/12/15 08:19:05;;;;;;;11.40;3.17;;;5.60;99.90;;;;;;5072932;28;20048;-70
2023/12/15 08:21:31;;;;;;;15.10;4.03;;;5.60;99.90;;;;;;5081703;28;20048;-69
2023/12/15 08:23:57;;;;;;;13.68;3.55;;;5.60;99.90;;;;;;5079819;28;20135;-70
2023/12/15 08:26:25;;;;;;;19.53;4.50;;;5.70;99.90;;;;;;5080446;28;20552;-69
2023/12/15 08:28:53;;;;;;;10.07;2.92;;;5.70;99.90;;;;;;5083929;28;20135;-69
2023/12/15 08:31:22;;;;;;;20.58;3.58;;;5.70;99.90;;;;;;5074151;28;20058;-69
2023/12/15 08:33:48;;;;;;;17.77;3.33;;;5.70;99.90;;;;;;5080049;28;20048;-69
2023/12/15 08:36:14;;;;;;;16.53;3.20;;;5.80;99.90;;;;;;5073517;28;20145;-70
2023/12/15 08:38:40;;;;;;;15.93;3.80;;;5.80;99.90;;;;;;5068216;28;20031;-69
2023/12/15 08:41:07;;;;;;;23.45;3.83;;;5.80;99.90;;;;;;5069916;28;20415;-70
2023/12/15 08:43:33;;;;;;;20.42;3.80;;;5.90;99.90;;;;;;5061036;28;20047;-70
2023/12/15 08:45:59;;;;;;;18.98;3.90;;;5.90;99.90;;;;;;5057267;28;20044;-69
2023/12/15 08:48:24;;;;;;;10.53;3.20;;;5.90;99.90;;;;;;5062473;28;20044;-70
2023/12/15 08:50:50;;;;;;;18.30;3.33;;;5.90;99.90;;;;;;5061953;28;20418;-70
2023/12/15 08:53:18;;;;;;;17.70;3.30;;;6.00;99.90;;;;;;5078431;28;20043;-70
2023/12/15 08:55:44;;;;;;;13.70;3.40;;;6.00;99.90;;;;;;5064299;28;20044;-69
2023/12/15 08:58:10;;;;;;;12.82;3.00;;;6.00;99.90;;;;;;5072740;28;20086;-70
2023/12/15 09:00:36;;;;;;;23.07;3.73;;;6.10;99.90;;;;;;5059347;28;20048;-70
2023/12/15 09:03:03;;;;;;;14.38;4.10;;;6.10;99.90;;;;;;5071206;28;20044;-70
2023/12/15 09:05:28;;;;;;;10.38;3.00;;;6.10;99.90;;;;;;5074856;28;20308;-70
2023/12/15 09:07:54;;;;;;;17.17;2.97;;;6.20;99.90;;;;;;5074951;28;20241;-69
2023/12/15 09:10:20;;;;;;;26.20;4.47;;;6.10;99.90;;;;;;5077338;28;20032;-69
2023/12/15 09:12:46;;;;;;;27.20;5.03;;;6.20;99.90;;;;;;5071797;28;20036;-69
2023/12/15 09:15:13;;;;;;;16.23;3.42;;;6.20;99.90;;;;;;5073147;28;20078;-69
2023/12/15 09:17:47;;;;;;;14.70;3.38;;;6.20;99.90;;;;;;5067871;28;20312;-69
2023/12/15 09:20:13;;;;;;;21.52;4.20;;;6.30;99.90;;;;;;5070344;28;20048;-69
2023/12/15 09:22:40;;;;;;;21.17;3.60;;;6.30;99.90;;;;;;5067323;28;20032;-69
2023/12/15 09:25:05;;;;;;;;;;;6.30;99.90;;;;;;5075285;28;20044;-69
2023/12/15 09:27:31;;;;;;;25.35;4.15;;;6.40;99.90;;;;;;5070179;28;20438;-69
2023/12/15 09:29:59;;;;;;;10.20;3.00;;;6.40;99.90;;;;;;5072686;28;20036;-69
2023/12/15 09:32:25;;;;;;;35.95;4.80;;;6.40;99.90;;;;;;5077127;28;20044;-69
2023/12/15 09:34:50;;;;;;;13.75;4.10;;;6.50;99.90;;;;;;5075402;28;20040;-69
2023/12/15 09:37:16;;;;;;;15.47;3.17;;;6.50;99.90;;;;;;5077825;28;20443;-69
2023/12/15 09:39:41;;;;;;;17.40;3.37;;;6.60;99.90;;;;;;5070246;28;20093;-69
2023/12/15 09:42:07;;;;;;;17.37;3.57;;;6.60;99.90;;;;;;5069403;28;20444;-69
2023/12/15 09:44:33;;;;;;;26.17;3.30;;;6.60;99.90;;;;;;5078529;28;20489;-69
2023/12/15 09:46:58;;;;;;;22.67;3.73;;;6.70;99.90;;;;;;5075730;28;20040;-69
2023/12/15 09:49:25;;;;;;;14.70;3.73;;;6.80;99.90;;;;;;5091686;28;20123;-69
2023/12/15 09:51:51;;;;;;;;;;;6.80;99.90;;;;;;5079901;28;20037;-69
2023/12/15 09:54:19;;;;;;;19.05;4.38;;;6.80;99.90;;;;;;5077229;28;19995;-69
2023/12/15 09:56:46;;;;;;;25.63;4.85;;;6.90;99.90;;;;;;5079025;28;20036;-69
2023/12/15 09:59:12;;;;;;;16.00;4.10;;;6.90;99.90;;;;;;5078114;28;20500;-69
2023/12/15 10:01:38;;;;;;;26.33;3.45;;;7.00;99.90;;;;;;5080701;28;20085;-70
2023/12/15 10:04:07;;;;;;;26.83;5.28;;;7.10;99.90;;;;;;5076810;28;20036;-69
2023/12/15 10:06:35;;;;;;;17.45;4.63;;;7.10;99.90;;;;;;5072491;28;20194;-69
2023/12/15 10:09:01;;;;;;;16.90;4.15;;;7.20;99.90;;;;;;5088453;28;20420;-70
2023/12/15 10:11:29;;;;;;;31.83;5.25;;;7.30;99.90;;;;;;5079955;28;20044;-70
2023/12/15 10:13:55;;;;;;;17.40;4.32;;;7.30;99.90;;;;;;5076055;28;20449;-70
2023/12/15 10:16:21;;;;;;;22.33;3.73;;;7.40;99.90;;;;;;5080417;28;20123;-69
2023/12/15 10:18:47;;;;;;;22.70;3.70;;;7.40;99.90;;;;;;5077508;28;20043;-69
2023/12/15 10:21:13;;;;;;;28.33;4.72;;;7.50;99.90;;;;;;5082644;28;20471;-69
2023/12/15 10:23:39;;;;;;;17.95;3.75;;;7.50;99.90;;;;;;5072080;28;20528;-70
2023/12/15 10:26:05;;;;;;;16.77;3.30;;;7.50;99.90;;;;;;5078996;28;20312;-69
2023/12/15 10:28:39;;;;;;;20.90;3.92;;;7.60;99.90;;;;;;5079071;28;20050;-69
2023/12/15 10:31:05;;;;;;;28.00;4.85;;;7.60;99.90;;;;;;5083221;28;20294;-70
2023/12/15 10:33:33;;;;;;;19.35;4.00;;;7.60;99.90;;;;;;5085898;28;20093;-69
2023/12/15 10:36:03;;;;;;;25.00;4.43;;;7.70;99.90;;;;;;5084693;28;20050;-70
2023/12/15 10:38:30;;;;;;;18.80;4.22;;;7.70;99.90;;;;;;5083023;28;20401;-70
2023/12/15 10:40:57;;;;;;;17.27;4.53;;;7.70;99.90;;;;;;5076290;28;20496;-69
2023/12/15 10:43:23;;;;;;;20.85;4.57;;;7.80;99.90;;;;;;5079533;28;20397;-69
2023/12/15 10:45:51;;;;;;;23.75;4.63;;;7.80;99.90;;;;;;5067658;28;20044;-70
2023/12/15 10:48:18;;;;;;;18.50;3.35;;;7.80;99.90;;;;;;5072814;28;20048;-70
2023/12/15 10:50:48;;;;;;;31.00;4.13;;;7.90;99.90;;;;;;5062991;28;20131;-70
2023/12/15 10:53:17;;;;;;;12.25;4.15;;;7.90;99.90;;;;;;5071188;28;20043;-70
2023/12/15 10:55:43;;;;;;;25.08;4.55;;;7.90;99.90;;;;;;5073625;28;20489;-70
2023/12/15 10:58:11;;;;;;;;;;;8.00;99.90;;;;;;5092584;28;20036;-70
2023/12/15 11:00:38;;;;;;;18.05;4.15;;;8.00;99.90;;;;;;5068975;28;20388;-70
2023/12/15 11:03:05;;;;;;;25.52;4.00;;;8.10;99.90;;;;;;5078381;28;20052;-70
2023/12/15 11:05:32;;;;;;;16.98;3.95;;;8.10;99.90;;;;;;5065137;28;20135;-69
2023/12/15 11:07:59;;;;;;;20.00;4.05;;;8.10;99.90;;;;;;5078234;28;20048;-70
2023/12/15 11:10:25;;;;;;;17.35;3.90;;;8.20;99.90;;;;;;5074831;28;20135;-70
2023/12/15 11:12:52;;;;;;;13.68;3.85;;;8.20;99.90;;;;;;5079451;28;20086;-70
2023/12/15 11:15:18;;;;;;;21.52;3.50;;;8.20;99.90;;;;;;5070046;28;20076;-69
2023/12/15 11:17:49;;;;;;;24.20;3.90;;;8.30;99.90;;;;;;5078591;28;20068;-70
2023/12/15 11:20:20;;;;;;;20.08;3.67;;;8.30;99.90;;;;;;5081403;28;20329;-70
2023/12/15 11:23:04;;;;;;;19.27;4.00;;;8.30;99.90;;;;;;5072001;28;20484;-70
2023/12/15 11:25:49;;;;;;;18.52;4.43;;;8.40;99.90;;;;;;5068666;28;20687;-70
2023/12/15 11:28:17;;;;;;;23.63;4.30;;;8.40;99.90;;;;;;5073274;28;20040;-70
2023/12/15 11:30:46;;;;;;;19.38;3.20;;;8.40;99.90;;;;;;5079103;28;20032;-70
2023/12/15 11:33:26;;;;;;;15.43;4.15;;;8.50;99.90;;;;;;5074094;28;20381;-70
2023/12/15 11:35:59;;;;;;;24.17;4.03;;;8.50;99.90;;;;;;5071824;28;20036;-70
2023/12/15 11:38:25;;;;;;;18.58;4.00;;;8.50;99.90;;;;;;5070265;28;20047;-70
2023/12/15 11:40:53;;;;;;;;;;;8.50;99.90;;;;;;5069917;28;20048;-70
2023/12/15 11:43:18;;;;;;;22.73;4.72;;;8.60;99.90;;;;;;5075206;28;19938;-70
2023/12/15 11:45:45;;;;;;;14.95;4.63;;;8.60;99.90;;;;;;5072318;28;20048;-70
2023/12/15 11:48:10;;;;;;;23.05;4.47;;;8.70;99.90;;;;;;5071052;28;20094;-70
2023/12/15 11:50:41;;;;;;;24.50;4.00;;;8.70;99.90;;;;;;5065395;28;20036;-70
2023/12/15 11:53:07;;;;;;;22.58;5.45;;;8.70;99.90;;;;;;5076178;28;20047;-70
2023/12/15 11:55:33;;;;;;;17.83;4.03;;;8.80;99.90;;;;;;5076774;28;20595;-70
2023/12/15 11:58:02;;;;;;;23.55;3.67;;;8.80;99.90;;;;;;5075695;28;20047;-70
2023/12/15 12:00:28;;;;;;;17.17;3.45;;;8.90;99.90;;;;;;5074718;28;20101;-69
2023/12/15 12:02:55;;;;;;;24.23;4.95;;;9.10;99.90;;;;;;5072713;28;20511;-70
2023/12/15 12:05:21;;;;;;;26.33;4.55;;;9.20;99.90;;;;;;5081557;28;20047;-70
2023/12/15 12:07:47;;;;;;;17.10;3.50;;;9.20;99.90;;;;;;5073903;28;20051;-70
2023/12/15 12:10:13;;;;;;;21.10;4.00;;;9.30;99.90;;;;;;5075927;28;20799;-70
2023/12/15 12:12:39;;;;;;;28.00;3.50;;;9.40;99.90;;;;;;5068218;28;20085;-70
2023/12/15 12:15:07;;;;;;;16.90;4.72;;;9.40;99.90;;;;;;5078228;28;20037;-70
2023/12/15 12:17:34;;;;;;;27.10;4.82;;;9.40;99.90;;;;;;5073748;28;20117;-70
2023/12/15 12:20:06;;;;;;;;;;;9.50;99.90;;;;;;5074452;28;20423;-70
2023/12/15 12:22:32;;;;;;;22.92;5.47;;;9.50;99.90;;;;;;5078622;28;19955;-70
2023/12/15 12:24:59;;;;;;;19.35;5.53;;;9.50;99.90;;;;;;5064078;28;20040;-70
2023/12/15 12:27:32;;;;;;;;;;;9.50;99.90;;;;;;5076018;28;20064;-70
2023/12/15 12:29:59;;;;;;;31.48;5.22;;;9.50;99.90;;;;;;5072071;28;19924;-70
2023/12/15 12:32:25;;;;;;;16.00;4.03;;;9.40;99.90;;;;;;5078953;28;20040;-70
2023/12/15 12:34:51;;;;;;;18.90;4.85;;;9.40;99.90;;;;;;5075528;28;20037;-70
2023/12/15 12:37:17;;;;;;;22.88;4.55;;;9.40;99.90;;;;;;5072882;28;20125;-70
2023/12/15 12:39:43;;;;;;;19.20;3.92;;;9.40;99.90;;;;;;5073060;28;20044;-70
2023/12/15 12:42:08;;;;;;;29.17;4.30;;;9.40;99.90;;;;;;5075509;28;20043;-70